createdAt,value
2018-12-15T00:00:51.268Z,19.50
2018-12-15T00:03:17.367Z,20.73
2018-12-15T00:05:43.625Z,20.03
2018-12-15T00:08:09.854Z,16.67
2018-12-15T00:10:36.111Z,18.47
2018-12-15T00:13:02.428Z,17.10
2018-12-15T00:15:28.677Z,17.00
2018-12-15T00:17:54.767Z,19.23
2018-12-15T00:20:21.403Z,19.77
2018-12-15T00:22:47.590Z,22.03
2018-12-15T00:25:13.883Z,19.53
2018-12-15T00:27:40.066Z,20.27
2018-12-15T00:30:06.349Z,18.83
2018-12-15T00:32:32.530Z,19.60
2018-12-15T00:34:58.789Z,21.00
2018-12-15T00:37:25.022Z,19.98
2018-12-15T00:39:51.145Z,18.87
2018-12-15T00:42:17.462Z,20.67
2018-12-15T00:44:43.608Z,19.30
2018-12-15T00:47:13.814Z,17.20
2018-12-15T00:49:38.217Z,19.30
2018-12-15T00:52:04.505Z,18.90
2018-12-15T00:54:30.707Z,18.17
2018-12-15T00:56:56.824Z,19.80
2018-12-15T00:59:23.077Z,19.43
2018-12-15T01:01:49.355Z,18.60
2018-12-15T01:04:15.743Z,19.27
2018-12-15T01:06:42.082Z,18.25
2018-12-15T01:09:08.241Z,18.27
2018-12-15T01:11:34.377Z,17.73
2018-12-15T01:14:07.561Z,19.50
2018-12-15T01:16:33.662Z,19.37
2018-12-15T01:18:59.889Z,17.73
2018-12-15T01:21:25.995Z,22.67
2018-12-15T01:23:52.268Z,19.87
2018-12-15T01:26:18.402Z,17.63
2018-12-15T01:28:44.552Z,18.07
2018-12-15T01:31:10.777Z,18.00
2018-12-15T01:33:36.998Z,17.00
2018-12-15T01:36:03.260Z,16.70
2018-12-15T01:38:29.396Z,20.20
2018-12-15T01:40:55.716Z,17.43
2018-12-15T01:43:21.842Z,16.63
2018-12-15T01:45:55.041Z,16.30
2018-12-15T01:48:21.136Z,17.93
2018-12-15T01:50:47.243Z,16.37
2018-12-15T01:53:13.350Z,15.35
2018-12-15T01:55:39.480Z,16.35
2018-12-15T01:58:05.566Z,16.83
2018-12-15T02:00:31.910Z,28.23
2018-12-15T02:02:58.030Z,18.52
2018-12-15T02:05:24.314Z,18.20
2018-12-15T02:07:50.663Z,14.90
2018-12-15T02:10:16.987Z,15.07
2018-12-15T02:12:43.240Z,15.10
2018-12-15T02:15:09.561Z,15.10
2018-12-15T02:17:35.778Z,14.13
2018-12-15T02:20:03.685Z,14.47
2018-12-15T02:22:29.972Z,14.70
2018-12-15T02:24:56.246Z,13.70
2018-12-15T02:27:22.361Z,13.70
2018-12-15T02:29:48.477Z,14.60
2018-12-15T02:32:14.718Z,12.58
2018-12-15T02:34:40.845Z,11.10
2018-12-15T02:37:07.082Z,11.50
2018-12-15T02:39:33.216Z,14.13
2018-12-15T02:41:59.463Z,12.77
2018-12-15T02:44:25.673Z,12.87
2018-12-15T02:46:51.890Z,13.25
2018-12-15T02:49:18.086Z,13.07
2018-12-15T02:51:44.208Z,13.73
2018-12-15T02:54:10.326Z,11.43
2018-12-15T02:56:36.558Z,13.70
2018-12-15T02:59:02.958Z,13.03
2018-12-15T03:01:29.051Z,11.07
2018-12-15T03:04:02.257Z,11.33
2018-12-15T03:06:29.076Z,12.73
2018-12-15T03:08:55.322Z,12.83
2018-12-15T03:11:21.437Z,12.47
2018-12-15T03:13:47.682Z,11.80
2018-12-15T03:16:13.798Z,13.03
2018-12-15T03:18:39.957Z,12.55
2018-12-15T03:21:06.135Z,11.53
2018-12-15T03:23:32.349Z,13.53
2018-12-15T03:25:58.472Z,12.28
2018-12-15T03:28:24.700Z,12.73
2018-12-15T03:30:50.822Z,11.60
2018-12-15T03:33:17.022Z,11.93
2018-12-15T03:35:43.182Z,13.07
2018-12-15T03:38:09.412Z,11.50
2018-12-15T03:40:35.858Z,13.62
2018-12-15T03:43:01.971Z,13.53
2018-12-15T03:45:28.063Z,14.60
2018-12-15T03:47:56.317Z,12.28
2018-12-15T03:50:22.506Z,15.13
2018-12-15T03:52:48.641Z,15.75
2018-12-15T03:55:14.721Z,14.63
2018-12-15T03:57:40.836Z,13.00
2018-12-15T04:00:08.142Z,12.57
2018-12-15T04:02:34.363Z,15.10
2018-12-15T04:05:00.502Z,13.50
2018-12-15T04:07:26.715Z,12.40
2018-12-15T04:09:52.886Z,13.78
2018-12-15T04:12:19.082Z,14.00
2018-12-15T04:14:45.438Z,14.00
2018-12-15T04:17:12.344Z,14.00
2018-12-15T04:19:38.433Z,14.53
2018-12-15T04:22:15.704Z,14.40
2018-12-15T04:24:41.787Z,15.50
2018-12-15T04:27:07.889Z,14.17
2018-12-15T04:29:40.946Z,14.13
2018-12-15T04:32:07.265Z,15.90
2018-12-15T04:34:33.485Z,14.43
2018-12-15T04:36:59.613Z,15.37
2018-12-15T04:39:25.963Z,14.43
2018-12-15T04:41:52.157Z,13.70
2018-12-15T04:44:18.359Z,13.67
2018-12-15T04:46:44.970Z,13.87
2018-12-15T04:49:11.071Z,16.23
2018-12-15T04:51:37.309Z,15.97
2018-12-15T04:54:03.504Z,15.50
2018-12-15T04:56:29.857Z,15.90
2018-12-15T04:58:56.113Z,15.80
2018-12-15T05:01:22.305Z,15.57
2018-12-15T05:03:48.418Z,18.17
2018-12-15T05:06:14.544Z,15.83
2018-12-15T05:08:40.771Z,16.90
2018-12-15T05:11:06.842Z,16.43
2018-12-15T05:13:32.994Z,14.70
2018-12-15T05:15:59.146Z,15.83
2018-12-15T05:18:25.308Z,16.27
2018-12-15T05:20:51.440Z,17.83
2018-12-15T05:23:17.739Z,16.90
2018-12-15T05:25:43.860Z,19.60
2018-12-15T05:28:10.066Z,17.47
2018-12-15T05:30:36.209Z,16.02
2018-12-15T05:33:02.552Z,16.63
2018-12-15T05:35:29.382Z,17.30
2018-12-15T05:37:55.713Z,17.40
2018-12-15T05:40:21.952Z,17.40
2018-12-15T05:42:48.074Z,17.57
2018-12-15T05:45:14.406Z,16.50
2018-12-15T05:47:40.529Z,17.00
2018-12-15T05:50:06.791Z,17.60
2018-12-15T05:52:32.961Z,16.30
2018-12-15T05:54:59.166Z,17.00
2018-12-15T05:57:25.387Z,17.60
2018-12-15T05:59:51.612Z,17.70
2018-12-15T06:02:18.685Z,18.70
2018-12-15T06:04:44.929Z,18.57
2018-12-15T06:07:11.292Z,18.03
2018-12-15T06:09:37.438Z,17.92
2018-12-15T06:12:03.769Z,17.73
2018-12-15T06:14:30.062Z,19.57
2018-12-15T06:16:56.302Z,20.20
2018-12-15T06:19:22.437Z,19.37
2018-12-15T06:21:48.557Z,20.73
2018-12-15T06:24:14.772Z,21.73
2018-12-15T06:26:41.001Z,20.25
2018-12-15T06:29:07.213Z,20.20
2018-12-15T06:34:16.671Z,19.57
2018-12-15T06:36:42.910Z,21.10
2018-12-15T06:39:09.129Z,20.10
2018-12-15T06:41:35.350Z,20.20
2018-12-15T06:44:08.752Z,19.17
2018-12-15T06:46:35.040Z,20.23
2018-12-15T06:49:01.304Z,22.37
2018-12-15T06:51:27.682Z,23.23
2018-12-15T06:53:54.067Z,20.10
2018-12-15T06:56:22.307Z,21.45
2018-12-15T06:58:48.470Z,21.27
2018-12-15T07:01:14.815Z,20.53
2018-12-15T07:03:40.897Z,21.80
2018-12-15T07:06:07.101Z,21.60
2018-12-15T07:08:33.357Z,23.67
2018-12-15T07:10:59.510Z,22.17
2018-12-15T07:13:25.673Z,25.73
2018-12-15T07:15:58.827Z,22.00
2018-12-15T07:18:25.053Z,22.97
2018-12-15T07:20:51.306Z,22.60
2018-12-15T07:26:13.609Z,20.53
2018-12-15T07:28:39.907Z,23.85
2018-12-15T07:31:06.100Z,21.73
2018-12-15T07:33:33.124Z,21.63
2018-12-15T07:35:59.408Z,23.57
2018-12-15T07:38:32.741Z,24.47
2018-12-15T07:40:58.943Z,22.20
2018-12-15T07:43:25.813Z,24.57
2018-12-15T07:45:51.989Z,21.13
2018-12-15T07:48:18.097Z,21.13
2018-12-15T07:50:44.322Z,22.17
2018-12-15T07:53:10.548Z,22.75
2018-12-15T07:55:36.738Z,25.77
2018-12-15T07:58:03.077Z,22.53
2018-12-15T08:00:29.291Z,22.60
2018-12-15T08:02:55.427Z,25.07
2018-12-15T08:05:21.765Z,21.50
2018-12-15T08:07:47.860Z,23.77
2018-12-15T08:10:16.627Z,25.37
2018-12-15T08:12:43.214Z,25.60
2018-12-15T08:15:09.521Z,27.40
2018-12-15T08:17:35.878Z,23.90
2018-12-15T08:20:04.789Z,26.20
2018-12-15T08:22:32.023Z,24.27
2018-12-15T08:24:58.148Z,24.10
2018-12-15T08:27:24.404Z,25.32
2018-12-15T08:29:50.506Z,24.93
2018-12-15T08:32:16.737Z,21.80
2018-12-15T08:34:43.006Z,25.52
2018-12-15T08:40:04.016Z,23.47
2018-12-15T08:42:30.390Z,25.15
2018-12-15T08:44:56.726Z,24.33
2018-12-15T08:47:22.881Z,25.23
2018-12-15T08:49:49.002Z,25.23
2018-12-15T08:52:15.161Z,26.30
2018-12-15T08:54:41.404Z,25.30
2018-12-15T08:59:52.667Z,23.43
2018-12-15T09:02:19.059Z,24.30
2018-12-15T09:04:45.362Z,24.47
2018-12-15T09:07:11.621Z,24.47
2018-12-15T09:09:37.799Z,25.20
2018-12-15T09:12:04.162Z,25.68
2018-12-15T09:14:37.508Z,25.43
2018-12-15T09:17:03.880Z,25.30
2018-12-15T09:19:31.162Z,26.62
2018-12-15T09:21:57.672Z,25.43
2018-12-15T09:24:23.933Z,24.60
2018-12-15T09:26:50.267Z,24.97
2018-12-15T09:29:16.528Z,24.47
2018-12-15T09:31:42.671Z,25.90
2018-12-15T09:34:09.842Z,27.60
2018-12-15T09:36:36.089Z,26.10
2018-12-15T09:39:05.687Z,27.67
2018-12-15T09:41:32.020Z,25.53
2018-12-15T09:43:58.302Z,24.82
2018-12-15T09:46:24.474Z,27.33
2018-12-15T09:48:51.510Z,26.53
2018-12-15T09:51:17.821Z,29.10
2018-12-15T09:53:53.294Z,26.23
2018-12-15T09:56:19.662Z,26.10
2018-12-15T09:58:45.929Z,26.97
2018-12-15T10:01:13.021Z,26.07
2018-12-15T10:03:39.274Z,28.43
2018-12-15T10:06:05.904Z,27.43
2018-12-15T10:08:32.024Z,27.63
2018-12-15T10:10:58.153Z,28.77
2018-12-15T10:13:24.363Z,29.43
2018-12-15T10:15:50.618Z,28.27
2018-12-15T10:18:17.897Z,31.03
2018-12-15T10:20:44.125Z,27.70
2018-12-15T10:23:10.261Z,28.80
2018-12-15T10:25:36.504Z,29.20
2018-12-15T10:28:02.868Z,26.77
2018-12-15T10:30:35.076Z,26.60
2018-12-15T10:33:01.213Z,30.13
2018-12-15T10:35:27.335Z,28.10
2018-12-15T10:37:53.729Z,28.75
2018-12-15T10:40:20.117Z,29.20
2018-12-15T10:42:46.393Z,29.55
2018-12-15T10:45:13.125Z,29.63
2018-12-15T10:47:40.159Z,29.77
2018-12-15T10:50:08.759Z,29.90
2018-12-15T10:52:35.109Z,27.90
2018-12-15T10:55:01.619Z,27.37
2018-12-15T10:57:27.921Z,29.57
2018-12-15T10:59:54.303Z,30.63
2018-12-15T11:02:21.653Z,29.90
2018-12-15T11:04:47.870Z,30.73
2018-12-15T11:07:14.100Z,27.30
2018-12-15T11:09:40.983Z,28.47
2018-12-15T11:12:07.458Z,29.18
2018-12-15T11:14:36.622Z,29.00
2018-12-15T11:17:03.872Z,30.23
2018-12-15T11:19:37.085Z,28.63
2018-12-15T11:22:01.207Z,27.77
2018-12-15T11:24:27.636Z,26.77
2018-12-15T11:26:54.007Z,30.50
2018-12-15T11:29:21.562Z,30.37
2018-12-15T11:31:48.399Z,28.95
2018-12-15T11:34:14.742Z,27.65
2018-12-15T11:36:41.689Z,27.10
2018-12-15T11:39:10.635Z,29.40
2018-12-15T11:41:39.468Z,31.37
2018-12-15T11:44:05.696Z,30.90
2018-12-15T11:46:33.049Z,29.20
2018-12-15T11:48:59.345Z,26.43
2018-12-15T11:51:26.297Z,28.97
2018-12-15T11:53:52.552Z,28.27
2018-12-15T11:56:18.789Z,25.93
2018-12-15T11:58:44.934Z,30.17
2018-12-15T12:01:11.453Z,25.20
2018-12-15T12:03:38.495Z,28.23
2018-12-15T12:06:04.821Z,29.60
2018-12-15T12:08:31.943Z,28.23
2018-12-15T12:10:58.340Z,31.03
2018-12-15T12:13:24.684Z,28.95
2018-12-15T12:15:52.094Z,29.23
2018-12-15T12:18:19.224Z,25.97
2018-12-15T12:20:45.450Z,29.37
2018-12-15T12:23:11.728Z,26.02
2018-12-15T12:25:37.977Z,25.50
2018-12-15T12:28:04.566Z,26.97
2018-12-15T12:30:31.775Z,26.70
2018-12-15T12:32:59.448Z,26.13
2018-12-15T12:35:32.806Z,28.90
2018-12-15T12:37:58.913Z,27.30
2018-12-15T12:40:29.330Z,27.43
2018-12-15T12:42:55.589Z,27.10
2018-12-15T12:45:21.879Z,28.13
2018-12-15T12:47:48.466Z,25.37
2018-12-15T12:50:14.952Z,28.43
2018-12-15T12:52:41.806Z,25.88
2018-12-15T12:55:08.485Z,27.52
2018-12-15T12:57:34.711Z,29.30
2018-12-15T13:00:01.930Z,26.50
2018-12-15T13:02:28.268Z,29.05
2018-12-15T13:04:54.494Z,25.63
2018-12-15T13:07:20.925Z,27.10
2018-12-15T13:09:47.153Z,26.57
2018-12-15T13:12:13.627Z,29.37
2018-12-15T13:14:41.686Z,29.18
2018-12-15T13:17:07.894Z,28.00
2018-12-15T13:19:34.137Z,27.87
2018-12-15T13:22:01.320Z,28.90
2018-12-15T13:24:29.264Z,27.47
2018-12-15T13:26:59.119Z,29.43
2018-12-15T13:29:24.753Z,28.20
2018-12-15T13:31:51.004Z,27.87
2018-12-15T13:34:17.279Z,29.12
2018-12-15T13:36:44.390Z,28.37
2018-12-15T13:39:11.523Z,27.90
2018-12-15T13:41:37.860Z,26.93
2018-12-15T13:44:04.142Z,27.87
2018-12-15T13:46:30.325Z,27.50
2018-12-15T13:48:58.456Z,26.40
2018-12-15T13:51:24.740Z,27.02
2018-12-15T13:53:50.970Z,28.70
2018-12-15T13:56:17.126Z,26.40
2018-12-15T13:58:43.339Z,28.80
2018-12-15T14:01:09.657Z,26.07
2018-12-15T14:03:37.376Z,26.30
2018-12-15T14:06:03.707Z,26.43
2018-12-15T14:08:30.979Z,26.10
2018-12-15T14:10:57.160Z,25.82
2018-12-15T14:13:23.357Z,25.43
2018-12-15T14:15:50.204Z,26.20
2018-12-15T14:18:16.430Z,27.13
2018-12-15T14:20:42.682Z,31.17
2018-12-15T14:25:49.198Z,25.83
2018-12-15T14:28:15.553Z,26.93
2018-12-15T14:30:41.811Z,24.47
2018-12-15T14:33:08.111Z,28.67
2018-12-15T14:35:35.577Z,26.93
2018-12-15T14:38:01.730Z,27.42
2018-12-15T14:40:28.897Z,27.87
2018-12-15T14:42:55.179Z,27.43
2018-12-15T14:45:21.442Z,25.93
2018-12-15T14:47:47.576Z,26.57
2018-12-15T14:50:13.937Z,24.60
2018-12-15T14:52:40.131Z,27.40
2018-12-15T14:55:08.537Z,30.60
2018-12-15T14:57:40.229Z,27.20
2018-12-15T15:00:07.951Z,28.20
2018-12-15T15:02:34.314Z,27.62
2018-12-15T15:05:00.640Z,27.13
2018-12-15T15:07:26.917Z,25.75
2018-12-15T15:09:53.068Z,28.70
2018-12-15T15:12:19.923Z,25.67
2018-12-15T15:14:47.012Z,26.43
2018-12-15T15:17:13.569Z,28.70
2018-12-15T15:19:39.899Z,28.52
2018-12-15T15:22:06.071Z,27.37
2018-12-15T15:24:33.787Z,27.80
2018-12-15T15:27:00.942Z,27.33
2018-12-15T15:29:27.760Z,29.00
2018-12-15T15:31:53.896Z,28.90
2018-12-15T15:34:20.492Z,26.02
2018-12-15T15:36:47.731Z,26.80
2018-12-15T15:39:14.157Z,27.47
2018-12-15T15:41:41.347Z,28.70
2018-12-15T15:44:14.359Z,28.80
2018-12-15T15:46:42.352Z,30.03
2018-12-15T15:49:08.675Z,29.83
2018-12-15T15:51:35.344Z,27.55
2018-12-15T15:54:01.584Z,28.50
2018-12-15T15:56:28.180Z,27.27
2018-12-15T15:58:54.308Z,28.38
2018-12-15T16:01:20.669Z,27.47
2018-12-15T16:03:46.968Z,27.67
2018-12-15T16:06:13.206Z,27.95
2018-12-15T16:08:40.338Z,28.60
2018-12-15T16:11:06.706Z,29.80
2018-12-15T16:13:33.097Z,29.60
2018-12-15T16:16:00.341Z,27.93
2018-12-15T16:18:26.445Z,29.50
2018-12-15T16:20:52.668Z,31.60
2018-12-15T16:23:18.808Z,30.52
2018-12-15T16:25:44.927Z,30.60
2018-12-15T16:28:11.285Z,26.13
2018-12-15T16:30:37.517Z,29.35
2018-12-15T16:33:03.849Z,30.50
2018-12-15T16:35:30.285Z,30.43
2018-12-15T16:37:56.409Z,28.63
2018-12-15T16:40:22.625Z,27.80
2018-12-15T16:42:48.845Z,29.20
2018-12-15T16:45:16.241Z,28.90
2018-12-15T16:47:42.505Z,28.60
2018-12-15T16:50:10.434Z,28.07
2018-12-15T16:52:44.039Z,28.37
2018-12-15T16:55:10.670Z,26.10
2018-12-15T16:57:36.907Z,29.55
2018-12-15T17:00:07.362Z,26.80
2018-12-15T17:02:34.661Z,30.67
2018-12-15T17:05:00.799Z,29.87
2018-12-15T17:07:27.715Z,29.27
2018-12-15T17:09:54.072Z,28.23
2018-12-15T17:12:20.315Z,26.33
2018-12-15T17:14:46.441Z,27.40
2018-12-15T17:17:14.046Z,25.20
2018-12-15T17:19:40.499Z,28.47
2018-12-15T17:22:06.858Z,26.53
2018-12-15T17:24:33.011Z,24.40
2018-12-15T17:26:59.410Z,26.47
2018-12-15T17:29:25.663Z,28.37
2018-12-15T17:31:51.885Z,29.97
2018-12-15T17:34:18.158Z,24.47
2018-12-15T17:36:44.262Z,28.47
2018-12-15T17:39:11.115Z,28.65
2018-12-15T17:41:37.238Z,30.63
2018-12-15T17:44:04.454Z,27.60
2018-12-15T17:46:30.589Z,27.45
2018-12-15T17:48:56.913Z,28.77
2018-12-15T17:51:23.097Z,27.17
2018-12-15T17:53:49.242Z,29.10
2018-12-15T17:56:15.408Z,28.03
2018-12-15T18:01:12.506Z,26.97
2018-12-15T18:03:38.726Z,28.57
2018-12-15T18:06:04.950Z,30.30
2018-12-15T18:08:31.740Z,30.20
2018-12-15T18:10:57.919Z,31.50
2018-12-15T18:13:24.152Z,29.40
2018-12-15T18:15:50.572Z,34.60
2018-12-15T18:18:17.309Z,26.85
2018-12-15T18:20:43.564Z,28.00
2018-12-15T18:23:09.748Z,26.33
2018-12-15T18:25:36.075Z,28.33
2018-12-15T18:28:02.490Z,28.73
2018-12-15T18:30:28.660Z,27.53
2018-12-15T18:32:54.941Z,29.73
2018-12-15T18:35:21.116Z,28.55
2018-12-15T18:37:47.357Z,28.83
2018-12-15T18:40:13.572Z,27.40
2018-12-15T18:42:41.360Z,26.52
2018-12-15T18:45:07.746Z,27.50
2018-12-15T18:47:35.187Z,25.85
2018-12-15T18:50:01.568Z,26.47
2018-12-15T18:52:27.863Z,28.27
2018-12-15T18:54:53.976Z,26.27
2018-12-15T18:57:20.110Z,28.40
2018-12-15T18:59:47.372Z,27.48
2018-12-15T19:02:13.479Z,29.47
2018-12-15T19:04:39.817Z,28.00
2018-12-15T19:07:06.164Z,30.77
2018-12-15T19:09:32.374Z,27.37
2018-12-15T19:11:58.575Z,30.37
2018-12-15T19:14:24.827Z,29.10
2018-12-15T19:16:51.025Z,28.97
2018-12-15T19:19:17.395Z,27.60
2018-12-15T19:21:43.547Z,28.97
2018-12-15T19:24:09.674Z,28.97
2018-12-15T19:26:35.958Z,26.87
2018-12-15T19:29:02.107Z,27.37
2018-12-15T19:31:30.060Z,28.13
2018-12-15T19:33:57.020Z,25.07
2018-12-15T19:36:23.766Z,27.93
2018-12-15T19:38:49.916Z,27.60
2018-12-15T19:41:18.993Z,26.50
2018-12-15T19:43:45.147Z,26.10
2018-12-15T19:46:12.218Z,25.63
2018-12-15T19:48:38.380Z,24.65
2018-12-15T19:51:04.728Z,25.73
2018-12-15T19:53:31.006Z,26.25
2018-12-15T19:55:57.204Z,28.87
2018-12-15T19:58:23.422Z,28.80
2018-12-15T20:00:49.764Z,26.97
2018-12-15T20:03:16.001Z,25.67
2018-12-15T20:05:43.173Z,28.27
2018-12-15T20:08:17.715Z,27.97
2018-12-15T20:10:43.882Z,29.77
2018-12-15T20:13:12.061Z,27.07
2018-12-15T20:15:38.305Z,27.30
2018-12-15T20:18:05.260Z,28.43
2018-12-15T20:20:32.181Z,27.70
2018-12-15T20:22:59.477Z,25.97
2018-12-15T20:25:26.446Z,28.40
2018-12-15T20:27:52.571Z,26.65
2018-12-15T20:30:18.830Z,27.90
2018-12-15T20:32:45.177Z,29.30
2018-12-15T20:35:11.448Z,28.37
2018-12-15T20:37:37.624Z,28.63
2018-12-15T20:40:07.086Z,28.20
2018-12-15T20:42:33.287Z,26.20
2018-12-15T20:44:59.526Z,28.80
2018-12-15T20:47:28.069Z,27.70
2018-12-15T20:49:54.118Z,28.50
2018-12-15T20:52:20.376Z,29.52
2018-12-15T20:54:47.110Z,28.13
2018-12-15T20:57:13.312Z,28.30
2018-12-15T20:59:39.686Z,28.67
2018-12-15T21:02:06.110Z,28.30
2018-12-15T21:04:32.534Z,30.40
2018-12-15T21:06:58.863Z,28.10
2018-12-15T21:09:25.350Z,27.33
2018-12-15T21:11:51.813Z,28.37
2018-12-15T21:14:18.126Z,27.45
2018-12-15T21:16:44.460Z,26.00
2018-12-15T21:19:10.902Z,28.13
2018-12-15T21:21:37.129Z,28.02
2018-12-15T21:24:03.470Z,26.70
2018-12-15T21:26:30.493Z,28.63
2018-12-15T21:28:56.720Z,28.00
2018-12-15T21:31:23.076Z,27.80
2018-12-15T21:33:49.362Z,27.27
2018-12-15T21:36:15.643Z,27.80
2018-12-15T21:38:41.872Z,29.87
2018-12-15T21:41:08.136Z,29.37
2018-12-15T21:43:34.348Z,29.07
2018-12-15T21:46:00.465Z,27.23
2018-12-15T21:48:26.585Z,29.93
2018-12-15T21:50:52.836Z,25.90
2018-12-15T21:53:19.149Z,26.73
2018-12-15T21:55:45.409Z,29.00
2018-12-15T21:58:11.636Z,27.60
2018-12-15T22:00:37.858Z,31.63
2018-12-15T22:03:04.122Z,29.43
2018-12-15T22:05:30.546Z,26.83
2018-12-15T22:07:57.190Z,27.00
2018-12-15T22:10:23.454Z,30.63
2018-12-15T22:12:49.613Z,26.90
2018-12-15T22:15:15.981Z,26.20
2018-12-15T22:17:42.166Z,32.10
2018-12-15T22:20:10.072Z,27.27
2018-12-15T22:22:36.375Z,27.37
2018-12-15T22:25:03.036Z,26.83
2018-12-15T22:27:29.148Z,27.67
2018-12-15T22:29:55.427Z,29.93
2018-12-15T22:32:21.579Z,28.35
2018-12-15T22:34:47.712Z,28.97
2018-12-15T22:37:20.886Z,26.43
2018-12-15T22:39:47.021Z,28.23
2018-12-15T22:42:13.341Z,27.87
2018-12-15T22:44:39.518Z,29.50
2018-12-15T22:47:05.758Z,27.73
2018-12-15T22:49:32.063Z,26.70
2018-12-15T22:51:58.432Z,29.83
2018-12-15T22:54:24.691Z,28.00
2018-12-15T22:56:51.092Z,28.30
2018-12-15T22:59:17.234Z,26.47
2018-12-15T23:01:45.397Z,27.57
2018-12-15T23:04:12.169Z,29.00
2018-12-15T23:06:38.626Z,28.70
2018-12-15T23:09:05.918Z,27.93
2018-12-15T23:11:32.294Z,28.63
2018-12-15T23:13:58.561Z,26.93
2018-12-15T23:16:24.817Z,29.87
2018-12-15T23:18:51.013Z,27.80
2018-12-15T23:21:17.274Z,27.30
2018-12-15T23:23:43.478Z,25.48
2018-12-15T23:26:09.674Z,29.43
2018-12-15T23:28:35.793Z,28.47
2018-12-15T23:31:01.995Z,30.10
2018-12-15T23:33:28.257Z,29.63
2018-12-15T23:35:54.438Z,26.80
2018-12-15T23:38:20.667Z,27.22
2018-12-15T23:40:46.842Z,26.63
2018-12-15T23:43:13.161Z,26.77
2018-12-15T23:45:39.394Z,26.80
2018-12-15T23:48:05.626Z,27.73
2018-12-15T23:50:32.027Z,30.97
2018-12-15T23:53:05.129Z,26.60
2018-12-15T23:55:31.455Z,26.87
2018-12-15T23:57:57.797Z,24.02
